Terminal Aerodrome Forecast
Issued by NWS Grand Junction, CO

Home | Current Version | Previous Version | Text Only | Print | Product List | Glossary On
Versions: 1 2 3 4 5 6 7 8 9 10 11 12 13
000
FTUS45 KGJT 171131
TAFGJT
TAF
KGJT 171131Z 1712/1812 VRB03KT P6SM SCT250
     FM171600 15004KT P6SM FEW150 BKN250
     FM172100 32004KT P6SM FEW150 SCT250
     FM180100 08004KT P6SM SCT250
     FM180600 11004KT P6SM SKC=

USA.gov is the U.S. government's official web portal to all federal, state and local government web resources and services.